Latest Weather Observations for Orbost

IDV60801

Issued at 9:31 am EDT Monday 2 February 2015 (issued every 30 minutes, with the page automatically refreshed every 10 minutes)

About weather observations | Map of weather stations | Latest weather observations for VIC | Other Formats
Station Details ID: 084145 Name: ORBOST Lat: -37.69 Lon: 148.47 Height: 62.65 m
Data from the previous 72 hours. | See also: Recent months at Orbost
Date/Time
EDT
Temp
°C
App
Temp
°C
Dew
Point
Rel
Hum
%
Delta-T
°C
Wind Press
QNH
hPa
Press
MSL
hPa
Rain
since 9 am
mm
Dir
 
Spd
km/h
Gust
km/h
Spd
kts
Gust
kts
02/09:30am 15.5 16.8 15.2 98 0.2 W 2 6 1 3 1019.4 1019.2 0.0
02/09:00am 15.1 16.3 14.8 98 0.2 WNW 2 4 1 2 1019.1 1018.9 15.4
02/08:30am 14.9 15.6 14.6 98 0.2 NW 4 6 2 3 1018.6 1018.4 15.4
02/08:00am 14.8 15.9 14.5 98 0.2 WSW 2 4 1 2 1018.1 1017.9 15.4
02/07:30am 14.5 15.1 14.2 98 0.2 NW 4 4 2 2 1017.6 1017.4 14.6
02/07:00am 14.4 14.9 14.1 98 0.2 NNW 4 6 2 3 1017.2 1017.0 13.2
02/06:30am 14.3 14.8 14.0 98 0.2 WNW 4 6 2 3 1016.7 1016.5 11.6
02/06:00am 14.3 14.8 14.0 98 0.2 W 4 6 2 3 1016.4 1016.2 10.2
02/05:30am 14.2 14.7 13.9 98 0.2 WNW 4 6 2 3 1016.2 1016.0 8.0
02/05:00am 14.2 15.4 13.9 98 0.2 CALM 0 4 0 2 1016.0 1015.8 6.4
02/04:30am 14.1 14.5 13.8 98 0.2 NW 4 6 2 3 1015.8 1015.6 4.8
02/04:00am 14.1 14.9 13.6 97 0.3 W 2 4 1 2 1015.8 1015.6 4.4
02/03:30am 14.1 14.5 13.6 97 0.3 NNW 4 6 2 3 1015.6 1015.4 3.4
02/03:00am 14.0 14.3 13.5 97 0.3 NNE 4 6 2 3 1015.6 1015.4 3.4
02/02:30am 14.2 15.0 13.7 97 0.3 ENE 2 6 1 3 1015.8 1015.6 3.4
02/02:00am 13.9 14.2 13.3 96 0.3 SE 4 7 2 4 1016.0 1015.8 3.4
02/01:30am 14.0 14.2 13.2 95 0.4 NNE 4 4 2 2 1015.9 1015.7 2.2
02/01:00am 13.9 14.2 13.3 96 0.3 E 4 6 2 3 1016.0 1015.8 2.2
02/12:30am 13.8 14.7 13.0 95 0.4 CALM 0 0 0 0 1016.0 1015.8 2.2
02/12:00am 13.2 13.2 12.3 94 0.5 N 4 4 2 2 1015.9 1015.7 2.2
 
Date/Time
EDT
Temp
°C
App
Temp
°C
Dew
Point
Rel
Hum
%
Delta-T
°C
Wind Press
QNH
hPa
Press
MSL
hPa
Rain
since 9 am
mm
Dir
 
Spd
km/h
Gust
km/h
Spd
kts
Gust
kts
01/11:30pm 13.6 14.1 12.8 95 0.4 N 2 4 1 2 1016.0 1015.8 2.2
01/11:00pm 13.8 14.6 12.7 93 0.6 CALM 0 0 0 0 1015.9 1015.7 2.2
01/10:30pm 14.1 14.3 13.0 93 0.6 NNE 4 6 2 3 1015.8 1015.6 2.2
01/10:00pm 14.3 14.9 13.0 92 0.7 NE 2 4 1 2 1015.7 1015.5 2.2
01/09:30pm 15.0 15.5 12.9 87 1.2 ENE 2 6 1 3 1015.4 1015.2 2.2
01/09:00pm 15.7 15.9 13.2 85 1.4 ESE 4 6 2 3 1015.1 1014.9 2.2
01/08:30pm 16.0 15.9 13.3 84 1.5 ESE 6 9 3 5 1014.7 1014.5 2.2
01/08:00pm 17.0 16.8 13.1 78 2.2 SE 6 9 3 5 1014.5 1014.3 2.2
01/07:30pm 18.0 17.9 13.3 74 2.7 SE 6 9 3 5 1014.1 1013.9 2.2
01/07:00pm 18.1 17.7 13.0 72 2.9 SE 7 11 4 6 1013.9 1013.7 2.2
01/06:30pm 18.3 17.7 13.4 73 2.8 S 9 15 5 8 1013.5 1013.3 2.2
01/06:00pm 18.5 18.2 13.4 72 2.9 SSE 7 17 4 9 1013.2 1013.0 2.2
01/05:30pm 19.9 19.6 14.5 71 3.1 SSW 9 15 5 8 1013.0 1012.8 2.2
01/05:00pm 19.4 18.6 14.0 71 3.1 S 11 19 6 10 1013.0 1012.8 2.2
01/04:30pm 19.9 19.7 14.7 72 3.0 S 9 15 5 8 1013.0 1012.8 2.2
01/04:00pm 18.8 18.8 15.1 79 2.2 S 9 13 5 7 1013.0 1012.8 2.2
01/03:30pm 17.6 18.9 15.2 86 1.4 SSW 2 4 1 2 1013.0 1012.8 2.2
01/03:00pm 17.1 18.8 15.1 88 1.2 CALM 0 2 0 1 1013.0 1012.8 2.2
01/02:30pm 16.4 17.4 15.4 94 0.6 E 4 6 2 3 1013.0 1012.8 2.0
01/02:00pm 16.4 16.3 14.9 91 0.9 WSW 9 13 5 7 1013.0 1012.8 0.4
01/01:30pm 16.6 16.9 14.4 87 1.3 W 6 9 3 5 1013.0 1012.8 0.2
01/01:00pm 16.5 16.0 15.0 91 0.9 SW 11 17 6 9 1013.1 1012.9 0.2
01/12:30pm 16.6 16.0 14.6 88 1.2 SSW 11 17 6 9 1013.0 1012.8 0.2
01/12:00pm 16.3 15.9 15.2 93 0.6 SW 11 19 6 10 1013.2 1013.0 0.2
01/11:30am 16.0 15.0 14.5 91 0.9 SSW 13 20 7 11 1013.0 1012.8 0.2
01/11:00am 18.6 17.9 13.2 71 3.1 W 9 15 5 8 1012.6 1012.4 0.0
01/10:30am 17.9 17.1 13.0 73 2.8 W 9 15 5 8 1012.6 1012.4 0.0
01/10:00am 17.1 16.1 12.4 74 2.6 WNW 9 13 5 7 1012.6 1012.4 0.0
01/09:30am 17.6 16.1 13.1 75 2.5 NW 13 19 7 10 1012.3 1012.1 0.0
01/09:00am 16.0 14.7 12.6 80 1.9 WNW 11 20 6 11 1012.4 1012.2 0.4
01/08:30am 15.7 14.3 12.1 79 2.0 WNW 11 19 6 10 1012.1 1011.9 0.4
01/08:00am 15.5 14.1 12.3 81 1.8 WNW 11 17 6 9 1011.7 1011.5 0.4
01/07:30am 15.0 13.9 12.0 82 1.6 WNW 9 15 5 8 1011.4 1011.2 0.4
01/07:00am 14.9 13.8 11.9 82 1.6 WNW 9 15 5 8 1011.1 1010.9 0.4
01/06:30am 14.8 13.6 11.6 81 1.7 WNW 9 13 5 7 1011.0 1010.8 0.4
01/06:00am 14.9 13.7 11.7 81 1.7 WNW 9 17 5 9 1010.8 1010.6 0.4
01/05:30am 14.9 13.7 11.7 81 1.7 WNW 9 15 5 8 1010.6 1010.4 0.4
01/05:00am 15.0 13.9 11.8 81 1.7 WNW 9 15 5 8 1010.5 1010.3 0.4
01/04:30am 15.3 14.1 11.7 79 1.9 WNW 9 15 5 8 1010.3 1010.1 0.4
01/04:00am 15.4 14.6 11.8 79 2.0 WNW 7 13 4 7 1010.2 1010.0 0.4
01/03:30am 15.3 14.6 11.9 80 1.8 WNW 7 15 4 8 1010.2 1010.0 0.4
01/03:00am 15.5 14.5 12.3 81 1.8 WNW 9 13 5 7 1010.3 1010.1 0.4
01/02:30am 15.7 15.2 12.6 82 1.7 WNW 7 11 4 6 1010.4 1010.2 0.4
01/02:00am 15.6 15.4 12.9 84 1.5 WNW 6 7 3 4 1010.5 1010.3 0.4
01/01:30am 15.6 15.2 12.5 82 1.7 W 6 7 3 4 1010.7 1010.5 0.4
01/01:00am 15.9 15.5 12.3 79 2.0 WNW 6 7 3 4 1010.8 1010.6 0.4
01/12:30am 16.0 15.6 12.4 79 2.0 NNW 6 9 3 5 1010.9 1010.7 0.4
01/12:00am 15.6 15.3 12.7 83 1.6 NNW 6 7 3 4 1011.2 1011.0 0.4
 
Date/Time
EDT
Temp
°C
App
Temp
°C
Dew
Point
Rel
Hum
%
Delta-T
°C
Wind Press
QNH
hPa
Press
MSL
hPa
Rain
since 9 am
mm
Dir
 
Spd
km/h
Gust
km/h
Spd
kts
Gust
kts
31/11:30pm 15.8 15.9 12.7 82 1.7 NNW 4 6 2 3 1011.4 1011.2 0.4
31/11:00pm 16.0 16.1 12.6 80 1.9 NW 4 6 2 3 1011.4 1011.2 0.4
31/10:30pm 16.1 16.2 12.8 81 1.8 NNW 4 6 2 3 1011.5 1011.3 0.4
31/10:00pm 16.0 16.1 12.7 81 1.8 NW 4 4 2 2 1011.3 1011.1 0.4
31/09:30pm 16.3 16.4 12.8 80 1.9 NW 4 6 2 3 1011.2 1011.0 0.4
31/09:00pm 16.6 16.7 12.6 77 2.2 WNW 4 6 2 3 1011.0 1010.8 0.4
31/08:30pm 16.9 16.5 12.4 75 2.5 W 6 7 3 4 1010.7 1010.5 0.4
31/08:00pm 17.3 16.7 12.4 73 2.7 WSW 7 11 4 6 1010.3 1010.1 0.4
31/07:30pm 17.7 17.0 11.9 69 3.2 WSW 7 11 4 6 1010.0 1009.8 0.4
31/07:00pm 17.8 17.0 11.6 67 3.4 SW 7 15 4 8 1009.8 1009.6 0.4
31/06:30pm 17.8 16.7 11.8 68 3.3 WSW 9 13 5 7 1009.7 1009.5 0.4
31/06:00pm 17.8 16.2 12.7 72 2.9 WSW 13 17 7 9 1009.6 1009.4 0.4
31/05:30pm 17.7 16.1 12.8 73 2.7 WSW 13 22 7 12 1009.6 1009.4 0.4
31/05:00pm 17.6 17.6 14.3 81 1.9 WSW 7 13 4 7 1009.6 1009.4 0.4
31/04:30pm 17.1 16.2 13.8 81 1.9 WNW 11 19 6 10 1009.5 1009.2 0.4
31/04:00pm 17.1 16.3 14.0 82 1.8 W 11 20 6 11 1009.5 1009.2 0.4
31/03:30pm 16.7 15.6 14.3 86 1.4 W 13 19 7 10 1009.6 1009.4 0.4
31/03:00pm 15.7 14.5 14.1 90 0.9 W 13 20 7 11 1009.8 1009.6 0.4
31/02:30pm 16.4 15.6 13.9 85 1.4 W 11 20 6 11 1009.7 1009.5 0.0
31/02:00pm 16.9 14.6 13.0 78 2.2 W 17 24 9 13 1009.7 1009.5 0.0
31/01:30pm 16.9 14.5 12.8 77 2.3 W 17 24 9 13 1009.5 1009.2 0.0
31/01:00pm 17.0 14.6 12.7 76 2.4 W 17 28 9 15 1009.5 1009.2 0.0
31/12:30pm 16.7 13.5 12.0 74 2.6 W 20 30 11 16 1009.7 1009.5 0.0
31/12:00pm 16.4 13.6 12.6 78 2.1 W 19 28 10 15 1009.9 1009.7 0.0
31/11:30am 15.4 13.4 11.6 78 2.1 WNW 13 22 7 12 1010.1 1009.9 0.0
31/11:00am 14.1 12.1 11.6 85 1.3 WNW 13 19 7 10 1010.3 1010.1 0.0
31/10:30am 14.3 11.8 10.9 80 1.8 W 15 26 8 14 1010.4 1010.2 0.0
31/10:00am 14.6 11.6 10.8 78 2.0 W 17 30 9 16 1010.3 1010.1 0.0
31/09:30am 14.9 12.7 10.7 76 2.2 WNW 13 24 7 13 1010.0 1009.8 0.0
31/09:00am 14.6 12.4 10.8 78 2.0 WNW 13 20 7 11 1009.9 1009.7 5.8
31/08:30am 14.4 12.6 10.8 79 1.9 WNW 11 22 6 12 1009.8 1009.6 5.8
31/08:00am 13.9 12.5 10.9 82 1.6 WNW 9 17 5 9 1009.8 1009.6 5.8
31/07:30am 13.8 11.6 10.8 82 1.6 WNW 13 19 7 10 1009.4 1009.1 5.8
31/07:00am 13.6 11.4 10.8 83 1.5 WNW 13 24 7 13 1009.2 1008.9 5.8
31/06:30am 13.4 11.6 10.8 84 1.4 WNW 11 15 6 8 1009.1 1008.8 5.8
31/06:00am 13.4 11.6 10.8 84 1.4 WNW 11 17 6 9 1009.0 1008.7 5.8
31/05:30am 13.2 11.3 10.6 84 1.4 WNW 11 19 6 10 1008.9 1008.6 5.8
31/05:00am 13.2 11.8 10.9 86 1.2 WNW 9 15 5 8 1008.9 1008.6 5.8
31/04:30am 13.1 11.7 10.8 86 1.2 WNW 9 17 5 9 1009.1 1008.8 5.8
31/04:00am 13.0 11.7 11.1 88 1.0 WNW 9 15 5 8 1009.3 1009.0 5.8
31/03:30am 13.1 11.0 11.3 89 1.0 WNW 13 20 7 11 1009.4 1009.1 5.8
31/03:00am 12.7 12.0 11.9 95 0.4 NW 7 13 4 7 1009.7 1009.5 5.8
31/02:30am 12.7 11.6 12.1 96 0.3 WNW 9 19 5 10 1009.9 1009.7 5.8
31/02:00am 12.9 11.9 12.3 96 0.3 WNW 9 17 5 9 1010.0 1009.8 5.6
31/01:30am 13.0 11.7 12.4 96 0.3 NW 11 19 6 10 1010.2 1010.0 5.4
31/01:00am 13.1 12.1 12.3 95 0.4 NW 9 13 5 7 1010.6 1010.4 5.4
31/12:30am 13.4 12.7 12.1 92 0.7 W 7 13 4 7 1010.9 1010.7 5.0
31/12:00am 13.9 13.3 11.6 86 1.2 W 6 9 3 5 1010.9 1010.7 4.8
 
Date/Time
EDT
Temp
°C
App
Temp
°C
Dew
Point
Rel
Hum
%
Delta-T
°C
Wind Press
QNH
hPa
Press
MSL
hPa
Rain
since 9 am
mm
Dir
 
Spd
km/h
Gust
km/h
Spd
kts
Gust
kts
30/11:30pm 14.3 13.4 11.5 83 1.5 WNW 7 13 4 7 1011.1 1010.9 4.2
30/11:00pm 14.2 13.3 11.5 84 1.4 WNW 7 11 4 6 1011.3 1011.1 4.2
30/10:30pm 14.2 13.6 11.7 85 1.3 WNW 6 9 3 5 1011.6 1011.4 4.2
30/10:00pm 14.1 13.5 11.8 86 1.2 WNW 6 9 3 5 1011.8 1011.6 4.2
30/09:30pm 14.3 13.6 12.0 86 1.2 WNW 7 11 4 6 1011.9 1011.7 4.2
30/09:00pm 14.3 13.6 12.0 86 1.2 WNW 7 11 4 6 1011.7 1011.5 4.2
30/08:30pm 14.4 13.7 11.9 85 1.4 WNW 7 11 4 6 1011.7 1011.5 4.2
30/08:00pm 15.1 13.8 11.1 77 2.1 WSW 9 15 5 8 1011.6 1011.4 4.2
30/07:30pm 15.3 13.1 10.9 75 2.3 WSW 13 22 7 12 1011.5 1011.3 4.2
30/07:00pm 15.3 12.8 11.1 76 2.2 SW 15 22 8 12 1011.4 1011.2 4.2
30/06:30pm 15.5 12.0 10.9 74 2.5 SW 20 35 11 19 1011.3 1011.1 4.2
30/06:00pm 15.4 12.6 11.2 76 2.3 SW 17 28 9 15 1011.4 1011.2 4.2
30/05:30pm 15.4 12.2 11.4 77 2.2 SW 19 30 10 16 1011.5 1011.3 4.2
30/05:00pm 15.4 12.1 11.6 78 2.1 SW 20 33 11 18 1011.7 1011.5 4.2
30/04:30pm 15.3 11.8 12.1 81 1.7 SW 22 35 12 19 1011.8 1011.6 4.2
30/04:00pm 14.9 11.5 12.4 85 1.4 SW 22 35 12 19 1011.9 1011.7 4.2
30/03:30pm 15.1 10.9 12.4 84 1.5 SW 26 39 14 21 1011.8 1011.6 4.2
30/03:00pm 14.8 12.0 13.3 91 0.8 SW 20 35 11 19 1011.9 1011.7 4.2
30/02:30pm 15.1 12.4 13.0 87 1.2 SW 19 32 10 17 1011.9 1011.7 4.0
30/02:00pm 14.9 11.8 13.3 90 0.9 SW 22 41 12 22 1011.9 1011.7 4.0
30/01:30pm 15.1 12.4 13.5 90 0.9 SW 20 32 11 17 1011.9 1011.7 3.6
30/01:00pm 15.6 12.5 13.3 86 1.3 SW 22 39 12 21 1012.1 1011.9 3.6
30/12:30pm 15.1 12.0 13.3 89 1.0 SW 22 35 12 19 1012.3 1012.1 3.6
30/12:00pm 15.0 12.0 13.7 92 0.7 SW 22 32 12 17 1012.4 1012.2 3.6
30/11:30am 14.9 12.3 13.9 94 0.6 SW 20 32 11 17 1012.5 1012.3 3.4
30/11:00am 14.6 12.5 13.6 94 0.6 SW 17 26 9 14 1012.8 1012.6 3.0
30/10:30am 14.2 11.0 13.2 94 0.6 SW 22 35 12 19 1013.0 1012.8 2.2
30/10:00am 15.0 12.8 13.2 89 1.0 SW 17 24 9 13 1012.9 1012.7 0.0

Other Formats:

Comma delimited format used in spreadsheet applications
http://www.bom.gov.au/fwo/IDV60801/IDV60801.95918.axf

JavaScript Object Notation format (JSON) in row-major order
http://www.bom.gov.au/fwo/IDV60801/IDV60801.95918.json